createdAt,value
2019-04-27T00:00:17.454Z,95147.89
2019-04-27T00:03:02.245Z,95146.45
2019-04-27T00:05:35.477Z,95145.16
2019-04-27T00:08:07.855Z,95143.98
2019-04-27T00:10:37.644Z,95138.02
2019-04-27T00:13:07.901Z,95139.49
2019-04-27T00:15:39.020Z,95130.13
2019-04-27T00:18:14.015Z,95133.42
2019-04-27T00:20:54.783Z,95130.39
2019-04-27T00:23:25.894Z,95138.13
2019-04-27T00:25:55.392Z,95142.28
2019-04-27T00:28:25.066Z,95136.30
2019-04-27T00:30:54.582Z,95132.98
2019-04-27T00:33:24.132Z,95135.88
2019-04-27T00:35:55.255Z,95140.08
2019-04-27T00:38:29.395Z,95140.65
2019-04-27T00:41:03.460Z,95138.91
2019-04-27T00:43:32.947Z,95140.61
2019-04-27T00:46:04.091Z,95136.55
2019-04-27T00:48:33.605Z,95135.28
2019-04-27T00:51:04.261Z,95132.68
2019-04-27T00:53:33.857Z,95138.64
2019-04-27T00:56:21.036Z,95135.60
2019-04-27T00:59:10.027Z,95137.06
2019-04-27T01:01:41.167Z,95131.22
2019-04-27T01:04:17.938Z,95133.83
2019-04-27T01:06:47.420Z,95131.85
2019-04-27T01:09:18.156Z,95128.33
2019-04-27T01:11:47.619Z,95131.02
2019-04-27T01:14:17.155Z,95131.85
2019-04-27T01:16:46.699Z,95131.58
2019-04-27T01:19:16.169Z,95120.69
2019-04-27T01:21:46.902Z,95126.69
2019-04-27T01:24:16.372Z,95130.31
2019-04-27T01:26:53.423Z,95129.91
2019-04-27T01:29:24.553Z,95136.90
2019-04-27T01:31:54.031Z,95138.48
2019-04-27T01:34:23.795Z,95136.74
2019-04-27T01:36:53.266Z,95134.21
2019-04-27T01:39:23.402Z,95139.07
2019-04-27T01:41:52.944Z,95144.71
2019-04-27T01:44:22.463Z,95141.93
2019-04-27T01:46:51.933Z,95137.07
2019-04-27T01:49:21.416Z,95144.47
2019-04-27T01:51:50.943Z,95143.33
2019-04-27T01:54:22.101Z,95144.79
2019-04-27T01:56:51.568Z,95147.87
2019-04-27T01:59:21.108Z,95149.77
2019-04-27T02:01:58.762Z,95141.38
2019-04-27T02:04:46.114Z,95144.25
2019-04-27T02:07:15.599Z,95133.81
2019-04-27T02:09:45.082Z,95132.58
2019-04-27T02:12:14.592Z,95127.33
2019-04-27T02:14:45.310Z,95120.05
2019-04-27T02:17:14.833Z,95119.59
2019-04-27T02:19:44.376Z,95113.37
2019-04-27T02:22:13.928Z,95118.16
2019-04-27T02:24:43.430Z,95113.94
2019-04-27T02:27:15.448Z,95103.80
2019-04-27T02:30:02.590Z,95104.91
2019-04-27T02:32:33.685Z,95099.13
2019-04-27T02:35:04.800Z,95094.48
2019-04-27T02:37:34.296Z,95096.42
2019-04-27T02:40:05.374Z,95089.81
2019-04-27T02:42:36.494Z,95097.09
2019-04-27T02:45:09.536Z,95107.26
2019-04-27T02:47:40.696Z,95099.38
2019-04-27T02:50:10.727Z,95099.41
2019-04-27T02:52:41.976Z,95100.40
2019-04-27T02:55:11.515Z,95094.20
2019-04-27T02:57:41.003Z,95102.44
2019-04-27T03:00:11.941Z,95101.92
2019-04-27T03:02:43.152Z,95101.01
2019-04-27T03:05:19.559Z,95101.20
2019-04-27T03:07:50.354Z,95097.57
2019-04-27T03:10:19.987Z,95097.31
2019-04-27T03:12:51.175Z,95091.25
2019-04-27T03:15:24.860Z,95097.89
2019-04-27T03:18:01.558Z,95096.80
2019-04-27T03:20:35.405Z,95098.50
2019-04-27T03:23:06.527Z,95096.30
2019-04-27T03:25:43.344Z,95086.61
2019-04-27T03:28:13.945Z,95087.25
2019-04-27T03:30:43.824Z,95086.67
2019-04-27T03:33:13.377Z,95079.59
2019-04-27T03:35:43.965Z,95084.73
2019-04-27T03:38:13.782Z,95081.02
2019-04-27T03:40:43.361Z,95081.17
2019-04-27T03:43:19.772Z,95089.75
2019-04-27T03:45:51.754Z,95086.58
2019-04-27T03:48:20.515Z,95080.41
2019-04-27T03:50:54.154Z,95084.09
2019-04-27T03:53:40.972Z,95083.97
2019-04-27T03:56:16.030Z,95092.45
2019-04-27T03:58:53.422Z,95092.55
2019-04-27T04:01:22.903Z,95092.98
2019-04-27T04:03:52.461Z,95096.06
2019-04-27T04:06:22.121Z,95093.94
2019-04-27T04:08:55.040Z,95097.75
2019-04-27T04:11:31.452Z,95095.50
2019-04-27T04:14:05.502Z,95093.17
2019-04-27T04:16:36.609Z,95100.61
2019-04-27T04:19:09.779Z,95103.16
2019-04-27T04:21:40.000Z,95097.56
2019-04-27T04:24:12.175Z,95099.69
2019-04-27T04:26:41.020Z,95094.13
2019-04-27T04:29:10.744Z,95102.97
2019-04-27T04:31:41.438Z,95101.13
2019-04-27T04:34:12.096Z,95105.73
2019-04-27T04:36:42.666Z,95112.72
2019-04-27T04:39:12.916Z,95107.89
2019-04-27T04:41:44.031Z,95114.53
2019-04-27T04:44:30.334Z,95104.94
2019-04-27T04:47:10.312Z,95113.30
2019-04-27T04:49:39.818Z,95105.55
2019-04-27T04:52:09.777Z,95105.05
2019-04-27T04:54:40.910Z,95106.76
2019-04-27T04:57:10.460Z,95107.08
2019-04-27T04:59:39.979Z,95113.66
2019-04-27T05:02:10.628Z,95112.51
2019-04-27T05:04:40.380Z,95116.25
2019-04-27T05:07:09.880Z,95108.78
2019-04-27T05:09:39.597Z,95111.38
2019-04-27T05:12:09.187Z,95115.41
2019-04-27T05:14:38.973Z,95117.06
2019-04-27T05:17:09.499Z,95116.02
2019-04-27T05:19:39.042Z,95117.91
2019-04-27T05:22:09.332Z,95112.69
2019-04-27T05:24:39.462Z,95118.41
2019-04-27T05:27:09.314Z,95124.92
2019-04-27T05:29:39.058Z,95121.10
2019-04-27T05:32:09.147Z,95127.14
2019-04-27T05:34:39.444Z,95122.22
2019-04-27T05:37:09.094Z,95121.08
2019-04-27T05:39:39.006Z,95118.79
2019-04-27T05:42:12.518Z,95119.33
2019-04-27T05:44:59.448Z,95123.06
2019-04-27T05:47:30.585Z,95120.27
2019-04-27T05:50:01.687Z,95127.16
2019-04-27T05:52:31.184Z,95126.09
2019-04-27T05:55:00.942Z,95125.73
2019-04-27T05:57:31.464Z,95121.00
2019-04-27T06:00:02.082Z,95119.50
2019-04-27T06:02:32.071Z,95122.75
2019-04-27T06:05:01.531Z,95115.78
2019-04-27T06:07:31.017Z,95112.64
2019-04-27T06:10:00.527Z,95109.69
2019-04-27T06:12:30.013Z,95109.38
2019-04-27T06:15:00.155Z,95109.78
2019-04-27T06:17:30.231Z,95112.73
2019-04-27T06:19:59.871Z,95113.95
2019-04-27T06:22:29.572Z,95104.94
2019-04-27T06:25:00.009Z,95100.67
2019-04-27T06:27:30.757Z,95108.42
2019-04-27T06:30:00.534Z,95105.92
2019-04-27T06:32:30.040Z,95105.81
2019-04-27T06:34:59.619Z,95105.36
2019-04-27T06:37:29.562Z,95109.02
2019-04-27T06:39:59.867Z,95106.74
2019-04-27T06:42:29.957Z,95108.11
2019-04-27T06:45:00.046Z,95106.28
2019-04-27T06:47:29.863Z,95110.88
2019-04-27T06:49:59.377Z,95108.86
2019-04-27T06:52:29.282Z,95110.37
2019-04-27T06:55:00.614Z,95107.68
2019-04-27T06:57:30.186Z,95112.30
2019-04-27T06:59:59.670Z,95112.23
2019-04-27T07:02:29.298Z,95109.14
2019-04-27T07:04:59.326Z,95116.81
2019-04-27T07:07:29.487Z,95120.31
2019-04-27T07:09:59.546Z,95115.58
2019-04-27T07:12:29.107Z,95111.39
2019-04-27T07:14:59.171Z,95107.95
2019-04-27T07:17:29.201Z,95115.50
2019-04-27T07:19:59.511Z,95111.88
2019-04-27T07:22:29.843Z,95106.05
2019-04-27T07:24:59.525Z,95106.13
2019-04-27T07:27:29.258Z,95099.59
2019-04-27T07:29:59.565Z,95106.64
2019-04-27T07:32:29.972Z,95098.37
2019-04-27T07:34:59.446Z,95104.70
2019-04-27T07:37:29.413Z,95091.07
2019-04-27T07:39:59.281Z,95092.57
2019-04-27T07:42:31.541Z,95094.12
2019-04-27T07:45:16.924Z,95088.94
2019-04-27T07:47:49.269Z,95088.68
2019-04-27T07:50:19.430Z,95085.74
2019-04-27T07:52:48.943Z,95084.61
2019-04-27T07:55:18.778Z,95088.00
2019-04-27T07:57:49.478Z,95077.18
2019-04-27T08:00:20.928Z,95070.72
2019-04-27T08:02:50.430Z,95070.13
2019-04-27T08:05:19.927Z,95067.80
2019-04-27T08:07:49.473Z,95071.41
2019-04-27T08:10:19.455Z,95064.88
2019-04-27T08:12:49.831Z,95062.47
2019-04-27T08:15:19.447Z,95063.09
2019-04-27T08:17:49.355Z,95059.50
2019-04-27T08:20:21.036Z,95058.38
2019-04-27T08:22:50.103Z,95055.27
2019-04-27T08:25:19.717Z,95050.34
2019-04-27T08:27:51.483Z,95047.73
2019-04-27T08:30:29.441Z,95050.66
2019-04-27T08:33:00.642Z,95041.61
2019-04-27T08:35:32.589Z,95040.42
2019-04-27T08:38:01.362Z,95043.48
2019-04-27T08:40:30.856Z,95039.30
2019-04-27T08:43:00.345Z,95041.78
2019-04-27T08:45:29.870Z,95043.38
2019-04-27T08:47:59.944Z,95035.62
2019-04-27T08:50:29.416Z,95030.23
2019-04-27T08:53:00.678Z,95027.94
2019-04-27T08:55:30.295Z,95024.64
2019-04-27T08:57:59.792Z,95027.96
2019-04-27T09:00:29.270Z,95017.62
2019-04-27T09:02:59.562Z,95015.36
2019-04-27T09:05:29.210Z,95014.09
2019-04-27T09:08:02.761Z,95016.45
2019-04-27T09:10:38.668Z,95021.14
2019-04-27T09:13:15.684Z,95016.24
2019-04-27T09:15:49.485Z,95008.94
2019-04-27T09:18:20.628Z,95005.03
2019-04-27T09:20:53.024Z,95008.62
2019-04-27T09:23:22.613Z,95003.45
2019-04-27T09:25:52.087Z,94995.63
2019-04-27T09:28:21.854Z,94994.73
2019-04-27T09:30:51.444Z,94992.01
2019-04-27T09:33:22.347Z,94998.75
2019-04-27T09:35:51.958Z,94990.75
2019-04-27T09:38:21.448Z,94996.62
2019-04-27T09:40:50.938Z,94995.05
2019-04-27T09:43:20.445Z,94995.34
2019-04-27T09:45:49.926Z,94990.61
2019-04-27T09:48:19.510Z,94995.53
2019-04-27T09:50:49.005Z,94985.99
2019-04-27T09:53:18.487Z,94992.03
2019-04-27T09:55:48.090Z,94986.44
2019-04-27T09:58:18.449Z,94987.36
2019-04-27T10:00:49.441Z,94987.33
2019-04-27T10:03:18.926Z,94986.30
2019-04-27T10:05:48.439Z,94993.23
2019-04-27T10:08:17.959Z,94986.08
2019-04-27T10:10:47.966Z,94977.31
2019-04-27T10:13:17.563Z,94973.53
2019-04-27T10:15:47.059Z,94969.31
2019-04-27T10:18:16.536Z,94974.33
2019-04-27T10:20:56.919Z,94967.14
2019-04-27T10:23:17.225Z,94959.30
2019-04-27T10:25:46.782Z,94962.98
2019-04-27T10:28:16.271Z,94960.52
2019-04-27T10:30:45.871Z,94965.09
2019-04-27T10:33:16.117Z,94945.81
2019-04-27T10:35:47.246Z,94943.84
2019-04-27T10:38:17.335Z,94945.05
2019-04-27T10:40:46.876Z,94946.19
2019-04-27T10:43:16.371Z,94958.86
2019-04-27T10:45:46.402Z,94945.41
2019-04-27T10:48:16.375Z,94928.50
2019-04-27T10:50:47.149Z,94930.59
2019-04-27T10:53:16.970Z,94928.05
2019-04-27T10:55:46.600Z,94916.45
2019-04-27T10:58:16.174Z,94928.08
2019-04-27T11:00:56.488Z,94931.06
2019-04-27T11:03:46.196Z,94925.02
2019-04-27T11:06:16.049Z,94928.33
2019-04-27T11:08:46.487Z,94917.21
2019-04-27T11:11:16.742Z,94930.95
2019-04-27T11:13:46.415Z,94906.73
2019-04-27T11:16:15.881Z,94909.98
2019-04-27T11:18:47.046Z,94915.45
2019-04-27T11:21:16.619Z,94908.63
2019-04-27T11:23:46.146Z,94920.45
2019-04-27T11:26:16.020Z,94911.16
2019-04-27T11:28:46.316Z,94917.20
2019-04-27T11:31:17.300Z,94925.59
2019-04-27T11:33:46.774Z,94919.52
2019-04-27T11:36:17.083Z,94916.47
2019-04-27T11:38:48.800Z,94917.86
2019-04-27T11:41:18.609Z,94915.31
2019-04-27T11:43:48.092Z,94913.92
2019-04-27T11:46:17.584Z,94917.88
2019-04-27T11:48:47.070Z,94919.79
2019-04-27T11:51:17.438Z,94919.03
2019-04-27T11:53:47.134Z,94927.81
2019-04-27T11:56:17.778Z,94926.38
2019-04-27T11:58:48.831Z,94927.35
2019-04-27T12:01:18.415Z,94922.19
2019-04-27T12:03:47.911Z,94923.35
2019-04-27T12:06:17.384Z,94916.77
2019-04-27T12:08:46.877Z,94925.23
2019-04-27T12:11:16.464Z,94925.26
2019-04-27T12:13:46.212Z,94933.93
2019-04-27T12:16:17.630Z,94929.95
2019-04-27T12:18:49.119Z,94934.42
2019-04-27T12:21:18.367Z,94932.33
2019-04-27T12:23:47.876Z,94933.30
2019-04-27T12:26:28.175Z,94928.73
2019-04-27T12:28:58.925Z,94933.00
2019-04-27T12:31:35.989Z,94936.78
2019-04-27T12:34:06.098Z,94939.89
2019-04-27T12:36:35.964Z,94928.77
2019-04-27T12:39:12.468Z,94931.83
2019-04-27T12:41:43.453Z,94927.66
2019-04-27T12:44:13.173Z,94925.09
2019-04-27T12:46:43.127Z,94921.63
2019-04-27T12:49:12.903Z,94936.84
2019-04-27T12:51:42.501Z,94931.83
2019-04-27T12:54:13.640Z,94929.06
2019-04-27T12:56:53.545Z,94925.94
2019-04-27T12:59:26.177Z,94924.07
2019-04-27T13:01:56.198Z,94923.80
2019-04-27T13:04:25.687Z,94922.86
2019-04-27T13:06:55.906Z,94919.72
2019-04-27T13:09:25.694Z,94915.83
2019-04-27T13:11:56.000Z,94919.19
2019-04-27T13:14:26.325Z,94912.78
2019-04-27T13:16:56.151Z,94910.59
2019-04-27T13:19:25.924Z,94904.97
2019-04-27T13:21:55.953Z,94907.00
2019-04-27T13:24:26.069Z,94904.95
2019-04-27T13:26:56.670Z,94902.63
2019-04-27T13:29:26.206Z,94897.14
2019-04-27T13:31:57.600Z,94900.39
2019-04-27T13:34:26.895Z,94898.11
2019-04-27T13:36:57.601Z,94892.14
2019-04-27T13:39:27.346Z,94894.08
2019-04-27T13:41:56.988Z,94899.36
2019-04-27T13:44:26.479Z,94892.81
2019-04-27T13:47:13.545Z,94884.09
2019-04-27T13:49:47.351Z,94885.71
2019-04-27T13:52:18.457Z,94890.39
2019-04-27T13:54:47.948Z,94877.23
2019-04-27T13:57:18.379Z,94872.80
2019-04-27T13:59:48.036Z,94876.10
2019-04-27T14:02:19.149Z,94860.28
2019-04-27T14:04:48.785Z,94873.98
2019-04-27T14:07:18.281Z,94876.10
2019-04-27T14:09:48.935Z,94873.37
2019-04-27T14:12:21.264Z,94865.40
2019-04-27T14:14:51.058Z,94860.50
2019-04-27T14:17:20.666Z,94853.20
2019-04-27T14:19:50.101Z,94859.12
2019-04-27T14:22:19.637Z,94855.03
2019-04-27T14:24:49.191Z,94854.52
2019-04-27T14:27:20.326Z,94849.44
2019-04-27T14:29:49.848Z,94857.04
2019-04-27T14:32:20.030Z,94843.81
2019-04-27T14:34:50.358Z,94849.33
2019-04-27T14:37:19.926Z,94846.95
2019-04-27T14:39:49.513Z,94849.14
2019-04-27T14:42:19.265Z,94854.16
2019-04-27T14:44:49.098Z,94846.09
2019-04-27T14:47:18.935Z,94855.75
2019-04-27T14:49:49.108Z,94853.00
2019-04-27T14:52:18.963Z,94853.11
2019-04-27T14:54:50.808Z,94852.45
2019-04-27T14:57:20.396Z,94855.43
2019-04-27T14:59:50.417Z,94852.94
2019-04-27T15:02:19.949Z,94850.13
2019-04-27T15:04:49.473Z,94838.33
2019-04-27T15:07:19.001Z,94835.42
2019-04-27T15:09:49.626Z,94833.78
2019-04-27T15:12:24.420Z,94824.84
2019-04-27T15:14:53.346Z,94815.71
2019-04-27T15:17:25.574Z,94825.57
2019-04-27T15:19:57.903Z,94815.41
2019-04-27T15:22:30.074Z,94811.71
2019-04-27T15:25:10.866Z,94813.42
2019-04-27T15:27:37.461Z,94803.90
2019-04-27T15:30:11.110Z,94808.05
2019-04-27T15:32:49.438Z,94798.20
2019-04-27T15:35:22.983Z,94799.93
2019-04-27T15:37:56.577Z,94790.96
2019-04-27T15:40:50.596Z,94796.91
2019-04-27T15:43:18.383Z,94800.23
2019-04-27T15:45:48.686Z,94790.08
2019-04-27T15:48:20.216Z,94788.66
2019-04-27T15:50:49.524Z,94801.41
2019-04-27T15:53:19.027Z,94807.08
2019-04-27T15:55:49.751Z,94808.03
2019-04-27T15:58:25.125Z,94793.50
2019-04-27T16:00:56.285Z,94794.45
2019-04-27T16:03:22.659Z,94780.14
2019-04-27T16:05:53.473Z,94769.56
2019-04-27T16:08:23.914Z,94764.13
2019-04-27T16:10:53.459Z,94762.90
2019-04-27T16:13:26.401Z,94766.34
2019-04-27T16:15:55.234Z,94773.69
2019-04-27T16:18:28.514Z,94775.83
2019-04-27T16:20:55.898Z,94775.00
2019-04-27T16:23:25.400Z,94775.70
2019-04-27T16:25:54.890Z,94776.70
2019-04-27T16:28:24.376Z,94779.11
2019-04-27T16:30:54.150Z,94774.23
2019-04-27T16:33:23.693Z,94781.59
2019-04-27T16:36:00.309Z,94783.23
2019-04-27T16:38:44.063Z,94776.09
2019-04-27T16:41:13.672Z,94777.67
2019-04-27T16:43:45.501Z,94770.64
2019-04-27T16:46:14.746Z,94771.08
2019-04-27T16:48:44.222Z,94765.44
2019-04-27T16:51:13.759Z,94770.11
2019-04-27T16:53:43.298Z,94764.02
2019-04-27T16:56:14.819Z,94763.02
2019-04-27T16:58:49.074Z,94767.84
2019-04-27T17:01:24.218Z,94766.91
2019-04-27T17:03:54.226Z,94769.30
2019-04-27T17:06:23.776Z,94764.67
2019-04-27T17:08:57.394Z,94761.33
2019-04-27T17:11:24.488Z,94759.06
2019-04-27T17:13:59.058Z,94755.17
2019-04-27T17:16:45.067Z,94752.03
2019-04-27T17:19:16.171Z,94758.20
2019-04-27T17:21:45.676Z,94757.30
2019-04-27T17:24:18.025Z,94757.23
2019-04-27T17:26:47.852Z,94760.16
2019-04-27T17:29:20.472Z,94750.06
2019-04-27T17:31:55.163Z,94752.94
2019-04-27T17:34:25.336Z,94759.19
2019-04-27T17:36:56.391Z,94759.45
2019-04-27T17:39:25.419Z,94763.52
2019-04-27T17:41:54.929Z,94776.55
2019-04-27T17:44:24.412Z,94781.81
2019-04-27T17:46:53.909Z,94783.95
2019-04-27T17:49:23.426Z,94781.69
2019-04-27T17:51:52.968Z,94790.45
2019-04-27T17:54:22.446Z,94789.77
2019-04-27T17:56:52.539Z,94796.78
2019-04-27T17:59:23.407Z,94806.41
2019-04-27T18:01:53.839Z,94815.34
2019-04-27T18:04:24.105Z,94828.61
2019-04-27T18:06:55.649Z,94844.50
2019-04-27T18:09:24.800Z,94858.43
2019-04-27T18:11:54.665Z,94891.52
2019-04-27T18:14:24.197Z,94898.34
2019-04-27T18:16:53.703Z,94924.24
2019-04-27T18:19:33.685Z,94927.91
2019-04-27T18:22:04.849Z,94933.98
2019-04-27T18:24:37.887Z,94930.88
2019-04-27T18:27:09.110Z,94937.26
2019-04-27T18:29:38.746Z,94943.46
2019-04-27T18:32:08.883Z,94935.77
2019-04-27T18:34:38.936Z,94919.28
2019-04-27T18:37:08.760Z,94948.86
2019-04-27T18:39:38.789Z,94949.50
2019-04-27T18:42:09.442Z,94965.04
2019-04-27T18:44:38.930Z,94974.71
2019-04-27T18:47:08.576Z,94985.98
2019-04-27T18:49:39.672Z,94987.14
2019-04-27T18:52:22.623Z,94997.59
2019-04-27T18:54:52.453Z,94998.42
2019-04-27T18:57:21.966Z,95009.20
2019-04-27T18:59:51.476Z,95014.11
2019-04-27T19:02:20.945Z,95033.42
2019-04-27T19:04:50.477Z,95043.53
2019-04-27T19:07:20.599Z,95054.64
2019-04-27T19:09:50.275Z,95074.23
2019-04-27T19:12:20.491Z,95099.30
2019-04-27T19:14:50.111Z,95106.59
2019-04-27T19:17:20.034Z,95128.42
2019-04-27T19:19:49.755Z,95144.50
2019-04-27T19:22:19.241Z,95144.43
2019-04-27T19:24:48.733Z,95153.39
2019-04-27T19:27:35.924Z,95153.02
2019-04-27T19:30:11.575Z,95153.84
2019-04-27T19:32:41.052Z,95148.20
2019-04-27T19:35:10.531Z,95140.09
2019-04-27T19:37:40.058Z,95142.34
2019-04-27T19:40:09.751Z,95145.95
2019-04-27T19:42:39.247Z,95155.98
2019-04-27T19:45:08.870Z,95163.64
2019-04-27T19:47:38.443Z,95165.54
2019-04-27T19:50:10.314Z,95166.61
2019-04-27T19:52:39.871Z,95167.97
2019-04-27T19:55:09.429Z,95168.78
2019-04-27T19:57:42.033Z,95176.98
2019-04-27T20:00:15.257Z,95171.45
2019-04-27T20:02:44.764Z,95175.89
2019-04-27T20:05:16.426Z,95177.67
2019-04-27T20:07:46.034Z,95180.92
2019-04-27T20:10:15.553Z,95186.97
2019-04-27T20:12:45.028Z,95181.98
2019-04-27T20:15:14.587Z,95177.53
2019-04-27T20:17:44.060Z,95182.05
2019-04-27T20:20:13.774Z,95179.92
2019-04-27T20:22:43.263Z,95180.78
2019-04-27T20:25:12.873Z,95191.17
2019-04-27T20:27:46.893Z,95185.03
2019-04-27T20:30:14.545Z,95187.90
2019-04-27T20:32:44.010Z,95177.20
2019-04-27T20:35:13.475Z,95177.89
2019-04-27T20:37:42.971Z,95181.52
2019-04-27T20:40:13.695Z,95181.36
2019-04-27T20:42:43.204Z,95180.06
2019-04-27T20:45:12.691Z,95189.89
2019-04-27T20:47:42.236Z,95188.39
2019-04-27T20:50:12.095Z,95191.57
2019-04-27T20:52:41.329Z,95194.72
2019-04-27T20:55:13.011Z,95198.70
2019-04-27T20:57:42.542Z,95201.24
2019-04-27T21:00:13.990Z,95204.50
2019-04-27T21:03:02.653Z,95202.42
2019-04-27T21:05:36.361Z,95208.48
2019-04-27T21:08:11.688Z,95206.91
2019-04-27T21:10:41.446Z,95206.41
2019-04-27T21:13:11.328Z,95205.47
2019-04-27T21:15:41.912Z,95203.19
2019-04-27T21:18:11.651Z,95207.71
2019-04-27T21:20:41.319Z,95214.30
2019-04-27T21:23:12.086Z,95213.48
2019-04-27T21:25:42.216Z,95216.16
2019-04-27T21:28:17.972Z,95208.83
2019-04-27T21:30:42.952Z,95209.66
2019-04-27T21:33:12.471Z,95209.33
2019-04-27T21:35:42.651Z,95202.59
2019-04-27T21:38:12.162Z,95212.13
2019-04-27T21:40:41.617Z,95220.49
2019-04-27T21:43:11.390Z,95228.86
2019-04-27T21:45:41.990Z,95224.73
2019-04-27T21:48:11.529Z,95216.39
2019-04-27T21:50:41.421Z,95224.13
2019-04-27T21:53:12.543Z,95225.23
2019-04-27T21:55:42.254Z,95229.38
2019-04-27T21:58:11.822Z,95227.95
2019-04-27T22:00:42.839Z,95237.75
2019-04-27T22:03:21.452Z,95245.09
2019-04-27T22:05:51.585Z,95247.06
2019-04-27T22:08:21.515Z,95252.83
2019-04-27T22:10:50.921Z,95256.11
2019-04-27T22:13:22.192Z,95249.00
2019-04-27T22:15:51.758Z,95252.95
2019-04-27T22:18:21.345Z,95262.42
2019-04-27T22:20:51.175Z,95261.27
2019-04-27T22:23:23.210Z,95267.08
2019-04-27T22:25:54.612Z,95260.59
2019-04-27T22:28:23.924Z,95264.88
2019-04-27T22:30:53.702Z,95259.81
2019-04-27T22:33:23.485Z,95264.70
2019-04-27T22:35:52.953Z,95269.16
2019-04-27T22:38:22.449Z,95272.08
2019-04-27T22:41:13.078Z,95269.34
2019-04-27T22:44:01.344Z,95272.90
2019-04-27T22:46:32.539Z,95273.81
2019-04-27T22:49:02.015Z,95279.50
2019-04-27T22:51:32.446Z,95284.44
2019-04-27T22:54:01.934Z,95278.13
2019-04-27T22:56:32.114Z,95282.44
2019-04-27T22:59:11.003Z,95282.37
2019-04-27T23:01:42.662Z,95279.20
2019-04-27T23:04:16.243Z,95280.85
2019-04-27T23:06:45.726Z,95282.10
2019-04-27T23:09:15.200Z,95282.51
2019-04-27T23:11:44.668Z,95267.22
2019-04-27T23:14:14.188Z,95276.94
2019-04-27T23:16:48.103Z,95274.06
2019-04-27T23:19:17.588Z,95266.52
2019-04-27T23:21:47.103Z,95274.29
2019-04-27T23:24:16.602Z,95276.09
2019-04-27T23:26:46.074Z,95268.36
2019-04-27T23:29:16.069Z,95276.14
2019-04-27T23:31:58.977Z,95276.59
2019-04-27T23:34:28.463Z,95281.38
2019-04-27T23:36:57.962Z,95278.75
2019-04-27T23:39:27.446Z,95279.37
2019-04-27T23:41:56.935Z,95287.02
2019-04-27T23:44:26.401Z,95277.05
2019-04-27T23:46:55.996Z,95272.66
2019-04-27T23:49:25.493Z,95274.40
2019-04-27T23:51:59.296Z,95269.97
2019-04-27T23:54:28.787Z,95272.06
2019-04-27T23:56:58.259Z,95273.16
2019-04-27T23:59:27.739Z,95275.45
